Time;durP1;ratioP1;P1;durP2;ratioP2;P2;SDS_P1;SDS_P2;PMS_P1;PMS_P2;Temp;Humidity;BMP_temperature;BMP_pressure;BME280_temperature;BME280_humidity;BME280_pressure;Samples;Min_cycle;Max_cycle;Signal;HPM_P1;HPM_P2
2022/01/07 00:01:34;;;;;;;4.55;2.80;;;;;;;;;;5027902;28;20493;-84
2022/01/07 00:04:00;;;;;;;5.43;3.65;;;;;;;;;;5031979;28;20106;-83
2022/01/07 00:06:25;;;;;;;6.72;4.43;;;;;;;;;;5014679;28;20485;-85
2022/01/07 00:08:51;;;;;;;5.22;3.45;;;;;;;;;;5013919;28;20513;-83
2022/01/07 00:11:17;;;;;;;5.53;3.83;;;;;;;;;;5014138;28;20025;-83
2022/01/07 00:13:42;;;;;;;5.45;3.53;;;;;;;;;;5014274;28;20485;-86
2022/01/07 00:16:08;;;;;;;5.70;3.88;;;;;;;;;;5031910;28;20381;-85
2022/01/07 00:18:33;;;;;;;5.75;3.45;;;;;;;;;;5013904;28;20029;-84
2022/01/07 00:21:00;;;;;;;4.93;2.58;;;;;;;;;;5014272;28;20446;-85
2022/01/07 00:23:25;;;;;;;5.30;3.45;;;;;;;;;;5013729;28;20045;-85
2022/01/07 00:25:51;;;;;;;4.45;2.63;;;;;;;;;;5013817;28;20381;-84
2022/01/07 00:28:18;;;;;;;4.47;2.67;;;;;;;;;;5013867;28;20035;-85
2022/01/07 00:30:44;;;;;;;4.95;2.90;;;;;;;;;;5028818;28;20425;-85
2022/01/07 00:33:10;;;;;;;5.10;3.83;;;;;;;;;;5013706;28;20030;-83
2022/01/07 00:35:35;;;;;;;4.63;3.25;;;;;;;;;;5014013;28;20033;-84
2022/01/07 00:38:01;;;;;;;4.78;2.38;;;;;;;;;;5031537;28;20025;-82
2022/01/07 00:40:27;;;;;;;3.45;2.40;;;;;;;;;;5031746;28;20060;-82
2022/01/07 00:42:53;;;;;;;5.65;3.10;;;;;;;;;;5013330;28;20034;-84
2022/01/07 00:45:22;;;;;;;4.93;3.15;;;;;;;;;;5031847;28;20044;-84
2022/01/07 00:47:49;;;;;;;5.35;2.80;;;;;;;;;;5031755;28;20033;-86
2022/01/07 00:50:16;;;;;;;5.18;3.42;;;;;;;;;;5014724;28;20082;-84
2022/01/07 00:52:44;;;;;;;6.00;3.15;;;;;;;;;;5017874;28;20040;-83
2022/01/07 00:55:11;;;;;;;3.33;2.35;;;;;;;;;;5017548;28;20134;-84
2022/01/07 00:57:36;;;;;;;3.72;2.40;;;;;;;;;;5035535;28;20354;-84
2022/01/07 01:00:07;;;;;;;3.25;2.35;;;;;;;;;;5017584;28;20032;-82
2022/01/07 01:02:32;;;;;;;4.32;2.85;;;;;;;;;;5035809;28;20354;-82
2022/01/07 01:04:57;;;;;;;3.97;2.78;;;;;;;;;;5035385;28;20104;-83
2022/01/07 01:07:23;;;;;;;5.53;3.47;;;;;;;;;;5035425;28;20032;-83
2022/01/07 01:09:48;;;;;;;3.50;2.65;;;;;;;;;;5035317;28;20075;-85
2022/01/07 01:12:14;;;;;;;3.60;2.20;;;;;;;;;;5014260;28;20112;-84
2022/01/07 01:14:40;;;;;;;4.13;2.58;;;;;;;;;;5033539;28;20029;-86
2022/01/07 01:17:07;;;;;;;3.58;2.72;;;;;;;;;;5035477;28;20030;-86
2022/01/07 01:19:32;;;;;;;4.93;3.00;;;;;;;;;;5017260;28;20087;-85
2022/01/07 01:21:57;;;;;;;5.45;3.13;;;;;;;;;;5017286;28;20046;-85
2022/01/07 01:24:23;;;;;;;4.40;2.42;;;;;;;;;;5035020;28;20041;-84
2022/01/07 01:26:49;;;;;;;4.57;2.50;;;;;;;;;;5035142;28;20025;-85
2022/01/07 01:29:15;;;;;;;4.15;2.28;;;;;;;;;;5034761;28;20029;-86
2022/01/07 01:31:40;;;;;;;6.32;2.88;;;;;;;;;;5035037;28;20390;-83
2022/01/07 01:34:06;;;;;;;5.15;2.58;;;;;;;;;;5031053;28;20045;-83
2022/01/07 01:36:32;;;;;;;4.95;2.78;;;;;;;;;;5016890;28;20029;-84
2022/01/07 01:38:59;;;;;;;3.25;2.40;;;;;;;;;;5016853;28;20025;-85
2022/01/07 01:41:25;;;;;;;4.30;2.97;;;;;;;;;;5016737;28;20025;-83
2022/01/07 01:43:50;;;;;;;6.97;2.72;;;;;;;;;;5033929;28;20515;-83
2022/01/07 01:46:17;;;;;;;4.13;2.20;;;;;;;;;;5034643;28;20064;-85
2022/01/07 01:48:44;;;;;;;4.57;2.90;;;;;;;;;;5012707;28;20025;-86
2022/01/07 01:51:09;;;;;;;4.15;2.47;;;;;;;;;;5016616;28;20029;-84
2022/01/07 01:53:35;;;;;;;2.88;1.95;;;;;;;;;;5034503;28;20022;-84
2022/01/07 01:56:00;;;;;;;3.30;2.10;;;;;;;;;;5033057;28;20059;-84
2022/01/07 01:58:27;;;;;;;4.57;2.28;;;;;;;;;;5034497;28;20044;-85
2022/01/07 02:00:52;;;;;;;6.00;2.92;;;;;;;;;;5034433;28;20428;-83
2022/01/07 02:03:18;;;;;;;3.88;2.53;;;;;;;;;;5033881;28;20033;-83
2022/01/07 02:05:50;;;;;;;4.93;3.10;;;;;;;;;;5034273;28;20029;-84
2022/01/07 02:08:18;;;;;;;4.90;2.67;;;;;;;;;;5017355;28;20473;-84
2022/01/07 02:10:44;;;;;;;3.78;2.58;;;;;;;;;;5034142;28;20030;-83
2022/01/07 02:13:10;;;;;;;4.95;2.50;;;;;;;;;;5016515;28;20042;-84
2022/01/07 02:15:37;;;;;;;3.80;2.53;;;;;;;;;;5034144;28;20087;-84
2022/01/07 02:18:04;;;;;;;4.65;2.70;;;;;;;;;;5034003;28;20025;-84
2022/01/07 02:20:30;;;;;;;4.32;2.53;;;;;;;;;;5016147;28;20033;-86
2022/01/07 02:22:56;;;;;;;5.22;2.80;;;;;;;;;;5014585;28;20041;-82
2022/01/07 02:25:23;;;;;;;4.95;3.05;;;;;;;;;;5033390;28;20073;-85
2022/01/07 02:27:49;;;;;;;6.50;3.00;;;;;;;;;;5031696;28;20017;-82
2022/01/07 02:30:19;;;;;;;4.57;2.90;;;;;;;;;;5033785;28;20442;-84
2022/01/07 02:32:46;;;;;;;4.97;3.13;;;;;;;;;;5033472;28;20029;-83
2022/01/07 02:35:12;;;;;;;7.05;3.85;;;;;;;;;;5016027;28;20036;-85
2022/01/07 02:37:38;;;;;;;5.57;3.40;;;;;;;;;;5033752;28;20100;-85
2022/01/07 02:40:10;;;;;;;6.28;3.00;;;;;;;;;;5031610;28;20768;-85
2022/01/07 02:42:36;;;;;;;6.28;3.65;;;;;;;;;;5015932;28;20037;-83
2022/01/07 02:45:05;;;;;;;3.78;2.60;;;;;;;;;;5033690;28;20460;-85
2022/01/07 02:47:39;;;;;;;5.55;2.95;;;;;;;;;;5015633;28;20077;-86
2022/01/07 02:50:05;;;;;;;5.15;3.08;;;;;;;;;;5015596;28;20030;-84
2022/01/07 02:52:31;;;;;;;5.93;3.38;;;;;;;;;;5013662;28;20029;-84
2022/01/07 02:54:57;;;;;;;5.20;2.70;;;;;;;;;;5015708;28;20033;-83
2022/01/07 02:57:23;;;;;;;7.55;4.05;;;;;;;;;;5033562;28;20029;-84
2022/01/07 02:59:48;;;;;;;4.97;3.28;;;;;;;;;;5033145;28;20044;-83
2022/01/07 03:02:14;;;;;;;4.75;3.17;;;;;;;;;;5033358;28;20021;-88
2022/01/07 03:04:39;;;;;;;7.20;3.30;;;;;;;;;;5015141;28;20112;-85
2022/01/07 03:07:05;;;;;;;6.43;3.70;;;;;;;;;;5033206;28;20034;-85
2022/01/07 03:09:30;;;;;;;4.15;2.90;;;;;;;;;;5032874;28;20033;-88
2022/01/07 03:11:56;;;;;;;6.63;3.80;;;;;;;;;;5031907;28;20021;-84
2022/01/07 03:14:21;;;;;;;6.32;3.33;;;;;;;;;;5032622;28;20035;-86
2022/01/07 03:16:47;;;;;;;4.97;2.83;;;;;;;;;;5033187;28;20028;-84
2022/01/07 03:19:12;;;;;;;6.57;3.10;;;;;;;;;;5031943;28;20374;-85
2022/01/07 03:21:38;;;;;;;4.78;3.15;;;;;;;;;;5015346;28;20120;-85
2022/01/07 03:24:04;;;;;;;5.30;3.22;;;;;;;;;;5015221;28;20025;-84
2022/01/07 03:26:29;;;;;;;4.90;2.78;;;;;;;;;;5015098;28;20033;-86
2022/01/07 03:28:55;;;;;;;7.95;4.20;;;;;;;;;;5015351;28;20455;-87
2022/01/07 03:31:20;;;;;;;7.10;3.50;;;;;;;;;;5023621;28;20029;-85
2022/01/07 03:33:46;;;;;;;4.53;3.00;;;;;;;;;;5014657;28;20071;-85
2022/01/07 03:36:11;;;;;;;7.68;3.22;;;;;;;;;;5032829;28;20026;-83
2022/01/07 03:38:37;;;;;;;5.78;2.97;;;;;;;;;;5014203;28;20029;-83
2022/01/07 03:41:03;;;;;;;6.10;2.83;;;;;;;;;;5014787;28;20025;-86
2022/01/07 03:43:28;;;;;;;7.18;3.53;;;;;;;;;;5032555;28;20033;-85
2022/01/07 03:45:54;;;;;;;7.07;3.58;;;;;;;;;;5032537;28;20033;-83
2022/01/07 03:48:19;;;;;;;5.38;3.25;;;;;;;;;;5013589;28;20033;-84
2022/01/07 03:50:45;;;;;;;6.53;3.40;;;;;;;;;;5014763;28;20032;-87
2022/01/07 03:53:11;;;;;;;5.03;3.03;;;;;;;;;;5031972;28;20108;-84
2022/01/07 03:55:36;;;;;;;8.68;3.53;;;;;;;;;;5014791;28;20481;-85
2022/01/07 03:58:02;;;;;;;6.18;3.35;;;;;;;;;;5014314;28;20104;-83
2022/01/07 04:00:33;;;;;;;6.20;3.20;;;;;;;;;;5024208;28;20040;-86
2022/01/07 04:03:00;;;;;;;9.07;4.30;;;;;;;;;;5032215;28;20481;-86
2022/01/07 04:05:34;;;;;;;7.50;4.22;;;;;;;;;;5032693;28;20029;-84
2022/01/07 04:08:00;;;;;;;6.93;4.05;;;;;;;;;;5014714;28;20025;-83
2022/01/07 04:10:26;;;;;;;5.55;3.20;;;;;;;;;;5008634;28;20029;-85
2022/01/07 04:12:52;;;;;;;6.65;3.50;;;;;;;;;;5013516;28;20473;-84
2022/01/07 04:15:18;;;;;;;6.43;3.90;;;;;;;;;;5032006;28;20029;-83
2022/01/07 04:17:48;;;;;;;7.45;4.13;;;;;;;;;;5014233;28;20026;-86
2022/01/07 04:20:16;;;;;;;5.00;2.72;;;;;;;;;;5013972;28;20147;-85
2022/01/07 04:22:42;;;;;;;6.28;4.00;;;;;;;;;;5010427;28;20053;-84
2022/01/07 04:25:13;;;;;;;7.15;3.78;;;;;;;;;;5029868;28;20025;-83
2022/01/07 04:27:39;;;;;;;8.98;4.13;;;;;;;;;;5031796;28;20057;-84
2022/01/07 04:30:05;;;;;;;7.55;3.60;;;;;;;;;;5014036;28;20030;-85
2022/01/07 04:32:32;;;;;;;8.95;4.15;;;;;;;;;;5014237;28;20033;-84
2022/01/07 04:34:58;;;;;;;4.80;3.28;;;;;;;;;;5014052;28;20029;-83
2022/01/07 04:37:23;;;;;;;6.85;3.45;;;;;;;;;;5014319;28;20086;-83
2022/01/07 04:39:49;;;;;;;7.10;3.53;;;;;;;;;;5013728;28;20033;-84
2022/01/07 04:42:14;;;;;;;9.32;3.90;;;;;;;;;;5031578;28;20033;-84
2022/01/07 04:44:42;;;;;;;8.80;4.60;;;;;;;;;;5014126;28;20033;-85
2022/01/07 04:47:08;;;;;;;6.80;3.60;;;;;;;;;;5031663;28;20470;-85
2022/01/07 04:49:34;;;;;;;10.73;5.07;;;;;;;;;;5013304;28;20041;-84
2022/01/07 04:51:59;;;;;;;10.88;6.10;;;;;;;;;;5031293;28;20486;-83
2022/01/07 04:54:26;;;;;;;8.45;4.88;;;;;;;;;;5013812;28;20110;-84
2022/01/07 04:56:52;;;;;;;9.82;4.43;;;;;;;;;;5031845;28;20049;-84
2022/01/07 04:59:17;;;;;;;6.30;3.85;;;;;;;;;;5029980;28;20025;-86
2022/01/07 05:01:43;;;;;;;6.38;4.43;;;;;;;;;;5031850;28;20551;-83
2022/01/07 05:04:08;;;;;;;7.88;4.18;;;;;;;;;;5031598;28;20036;-84
2022/01/07 05:09:06;;;;;;;13.35;4.82;;;;;;;;;;5026437;28;20029;-85
2022/01/07 05:11:31;;;;;;;6.93;4.10;;;;;;;;;;5013940;28;20047;-85
2022/01/07 05:13:57;;;;;;;7.45;4.43;;;;;;;;;;5013842;28;20370;-83
2022/01/07 05:16:23;;;;;;;9.18;4.80;;;;;;;;;;5031186;28;20029;-85
2022/01/07 05:18:50;;;;;;;7.80;4.20;;;;;;;;;;5013643;28;20022;-85
2022/01/07 05:21:15;;;;;;;8.75;4.43;;;;;;;;;;5031451;28;20441;-83
2022/01/07 05:23:41;;;;;;;8.70;4.38;;;;;;;;;;5031162;28;20053;-83
2022/01/07 05:26:11;;;;;;;10.43;5.53;;;;;;;;;;5010362;28;20057;-85
2022/01/07 05:28:37;;;;;;;9.20;4.85;;;;;;;;;;5030461;28;20032;-88
2022/01/07 05:31:03;;;;;;;11.50;6.70;;;;;;;;;;5013892;28;20037;-86
2022/01/07 05:33:29;;;;;;;9.18;5.55;;;;;;;;;;5011155;28;20033;-86
2022/01/07 05:35:54;;;;;;;12.00;5.53;;;;;;;;;;5031783;28;20104;-88
2022/01/07 05:38:20;;;;;;;13.32;6.75;;;;;;;;;;5033139;28;20034;-85
2022/01/07 05:40:45;;;;;;;13.07;6.05;;;;;;;;;;5017058;28;20087;-84
2022/01/07 05:43:11;;;;;;;9.40;4.75;;;;;;;;;;5034659;28;20037;-87
2022/01/07 05:45:36;;;;;;;7.70;4.65;;;;;;;;;;5017054;28;20029;-87
2022/01/07 05:48:03;;;;;;;9.43;4.57;;;;;;;;;;5016684;28;20040;-86
2022/01/07 05:50:29;;;;;;;10.52;4.53;;;;;;;;;;5016744;28;20026;-85
2022/01/07 05:52:54;;;;;;;13.05;6.25;;;;;;;;;;5016701;28;20021;-86
2022/01/07 05:55:20;;;;;;;13.50;6.95;;;;;;;;;;5034053;28;20025;-84
2022/01/07 05:57:45;;;;;;;10.07;6.25;;;;;;;;;;5034310;28;20432;-84
2022/01/07 06:00:12;;;;;;;12.88;5.60;;;;;;;;;;5033041;28;20033;-87
2022/01/07 06:02:37;;;;;;;12.25;5.95;;;;;;;;;;5034244;28;20103;-83
2022/01/07 06:05:03;;;;;;;9.25;5.15;;;;;;;;;;5034119;28;20049;-88
2022/01/07 06:07:29;;;;;;;10.35;6.22;;;;;;;;;;5034350;28;20401;-83
2022/01/07 06:09:54;;;;;;;10.23;6.22;;;;;;;;;;5034344;28;20029;-83
2022/01/07 06:12:20;;;;;;;9.57;6.03;;;;;;;;;;5014643;28;20032;-84
2022/01/07 06:14:45;;;;;;;11.57;5.80;;;;;;;;;;5034048;28;20061;-86
2022/01/07 06:17:12;;;;;;;11.15;5.80;;;;;;;;;;5034215;28;20021;-86
2022/01/07 06:19:38;;;;;;;8.32;4.82;;;;;;;;;;5016421;28;20033;-83
2022/01/07 06:22:04;;;;;;;10.90;6.13;;;;;;;;;;5016051;28;20051;-82
2022/01/07 06:24:29;;;;;;;13.35;6.15;;;;;;;;;;5033018;28;20504;-82
2022/01/07 06:26:55;;;;;;;13.25;6.60;;;;;;;;;;5031395;28;20075;-86
2022/01/07 06:29:21;;;;;;;10.70;6.13;;;;;;;;;;5029769;28;20051;-84
2022/01/07 06:31:46;;;;;;;11.60;6.93;;;;;;;;;;5033270;28;20037;-84
2022/01/07 06:34:12;;;;;;;12.02;6.78;;;;;;;;;;5032668;28;20101;-84
2022/01/07 06:36:37;;;;;;;12.00;5.95;;;;;;;;;;5033562;28;20056;-85
2022/01/07 06:39:03;;;;;;;10.48;6.07;;;;;;;;;;5033117;28;20109;-82
2022/01/07 06:41:29;;;;;;;9.32;5.05;;;;;;;;;;5033077;28;20032;-83
2022/01/07 06:43:57;;;;;;;9.30;5.25;;;;;;;;;;5032774;28;20045;-80
2022/01/07 06:46:22;;;;;;;12.93;6.30;;;;;;;;;;5032815;28;20053;-82
2022/01/07 06:48:48;;;;;;;9.55;6.28;;;;;;;;;;5033027;28;20057;-81
2022/01/07 06:51:14;;;;;;;15.45;7.93;;;;;;;;;;5033290;28;20438;-84
2022/01/07 06:53:40;;;;;;;17.55;10.25;;;;;;;;;;5033054;28;20040;-83
2022/01/07 06:56:05;;;;;;;18.02;10.38;;;;;;;;;;5033417;28;20044;-84
2022/01/07 06:58:31;;;;;;;12.77;7.57;;;;;;;;;;5033076;28;20095;-81
2022/01/07 07:00:57;;;;;;;12.65;7.10;;;;;;;;;;5015396;28;20036;-82
2022/01/07 07:03:23;;;;;;;11.93;6.65;;;;;;;;;;5032944;28;20105;-81
2022/01/07 07:05:48;;;;;;;13.30;6.93;;;;;;;;;;5032383;28;20406;-84
2022/01/07 07:08:14;;;;;;;12.80;7.07;;;;;;;;;;5031153;28;20072;-81
2022/01/07 07:10:40;;;;;;;14.07;8.20;;;;;;;;;;5014881;28;20029;-84
2022/01/07 07:13:05;;;;;;;15.68;6.95;;;;;;;;;;5032505;28;20031;-81
2022/01/07 07:15:31;;;;;;;11.27;6.75;;;;;;;;;;5032688;28;20477;-82
2022/01/07 07:17:56;;;;;;;10.00;5.82;;;;;;;;;;5032967;28;20021;-83
2022/01/07 07:20:22;;;;;;;12.38;6.00;;;;;;;;;;5032709;28;20025;-84
2022/01/07 07:22:47;;;;;;;14.15;6.57;;;;;;;;;;5032397;28;20044;-84
2022/01/07 07:25:13;;;;;;;14.82;7.60;;;;;;;;;;5032519;28;20048;-83
2022/01/07 07:27:38;;;;;;;17.73;8.23;;;;;;;;;;5012453;28;20478;-84
2022/01/07 07:30:06;;;;;;;12.70;7.20;;;;;;;;;;5012526;28;20112;-82
2022/01/07 07:32:32;;;;;;;13.50;6.68;;;;;;;;;;5033127;28;20033;-83
2022/01/07 07:35:02;;;;;;;10.55;6.15;;;;;;;;;;5013271;28;20477;-83
2022/01/07 07:37:29;;;;;;;10.60;5.78;;;;;;;;;;5032823;28;20473;-82
2022/01/07 07:39:55;;;;;;;16.65;8.82;;;;;;;;;;5032681;28;20025;-84
2022/01/07 07:42:21;;;;;;;12.38;6.60;;;;;;;;;;5035627;28;20473;-83
2022/01/07 07:44:47;;;;;;;15.25;7.10;;;;;;;;;;5030577;28;20107;-83
2022/01/07 07:47:12;;;;;;;13.60;6.65;;;;;;;;;;5030403;28;20033;-82
2022/01/07 07:49:38;;;;;;;9.60;6.55;;;;;;;;;;5029531;28;20034;-83
2022/01/07 07:52:04;;;;;;;9.75;6.65;;;;;;;;;;5032379;28;20031;-82
2022/01/07 07:54:30;;;;;;;13.27;7.00;;;;;;;;;;5031400;28;20108;-81
2022/01/07 07:56:57;;;;;;;9.55;5.30;;;;;;;;;;5030349;28;20545;-85
2022/01/07 07:59:24;;;;;;;13.07;5.70;;;;;;;;;;5031244;28;20040;-85
2022/01/07 08:01:49;;;;;;;12.25;6.22;;;;;;;;;;5031338;28;20491;-84
2022/01/07 08:04:18;;;;;;;10.50;6.15;;;;;;;;;;5031883;28;20104;-84
2022/01/07 08:06:43;;;;;;;13.10;6.80;;;;;;;;;;5014104;28;20426;-83
2022/01/07 08:09:10;;;;;;;13.18;8.48;;;;;;;;;;5031636;28;20116;-82
2022/01/07 08:11:48;;;;;;;10.90;6.63;;;;;;;;;;5026096;28;20104;-83
2022/01/07 08:16:58;;;;;;;12.93;6.82;;;;;;;;;;5032618;28;20453;-82
2022/01/07 08:19:24;;;;;;;12.27;6.97;;;;;;;;;;5031912;28;20104;-80
2022/01/07 08:21:49;;;;;;;8.18;5.03;;;;;;;;;;5024999;28;20018;-84
2022/01/07 08:24:15;;;;;;;11.38;6.75;;;;;;;;;;5024414;28;20532;-83
2022/01/07 08:26:40;;;;;;;13.38;6.90;;;;;;;;;;5031345;28;20136;-82
2022/01/07 08:29:08;;;;;;;14.15;7.85;;;;;;;;;;5028325;28;20032;-82
2022/01/07 08:36:51;;;;;;;15.18;7.75;;;;;;;;;;5031393;28;20079;-82
2022/01/07 08:39:16;;;;;;;14.13;8.52;;;;;;;;;;5029852;28;20033;-83
2022/01/07 08:41:43;;;;;;;14.52;7.63;;;;;;;;;;5031164;28;20045;-82
2022/01/07 08:44:10;;;;;;;12.43;6.97;;;;;;;;;;5027388;28;20413;-81
2022/01/07 08:46:36;;;;;;;10.05;6.35;;;;;;;;;;5030044;28;20026;-80
2022/01/07 08:49:04;;;;;;;16.10;7.30;;;;;;;;;;5028290;28;20505;-82
2022/01/07 08:51:30;;;;;;;11.88;6.28;;;;;;;;;;5020482;28;20037;-81
2022/01/07 08:53:56;;;;;;;10.80;5.85;;;;;;;;;;5028622;28;20373;-81
2022/01/07 08:56:26;;;;;;;14.95;9.20;;;;;;;;;;5030256;28;20021;-82
2022/01/07 08:58:56;;;;;;;10.50;6.45;;;;;;;;;;5027821;28;20033;-81
2022/01/07 09:01:23;;;;;;;12.05;6.97;;;;;;;;;;5029868;28;20512;-80
2022/01/07 09:03:49;;;;;;;12.98;6.80;;;;;;;;;;5029594;28;20021;-84
2022/01/07 09:06:15;;;;;;;10.82;5.18;;;;;;;;;;5010966;28;20041;-83
2022/01/07 09:08:40;;;;;;;6.82;3.33;;;;;;;;;;5028124;28;20025;-80
2022/01/07 09:11:06;;;;;;;17.60;7.45;;;;;;;;;;5027244;28;20029;-82
2022/01/07 09:13:31;;;;;;;9.18;5.53;;;;;;;;;;5033228;28;20037;-82
2022/01/07 09:15:57;;;;;;;17.23;8.65;;;;;;;;;;5031833;28;20474;-82
2022/01/07 09:18:22;;;;;;;13.88;8.07;;;;;;;;;;5034202;28;20036;-82
2022/01/07 09:20:48;;;;;;;17.52;10.07;;;;;;;;;;5032980;28;20508;-82
2022/01/07 09:23:17;;;;;;;15.25;9.07;;;;;;;;;;5033732;28;20076;-81
2022/01/07 09:25:42;;;;;;;14.38;7.20;;;;;;;;;;5032413;28;20026;-82
2022/01/07 09:28:09;;;;;;;8.95;4.30;;;;;;;;;;5015548;28;20025;-84
2022/01/07 09:30:35;;;;;;;7.40;4.07;;;;;;;;;;5033795;28;20040;-83
2022/01/07 09:33:00;;;;;;;9.63;5.57;;;;;;;;;;5030810;28;20029;-82
2022/01/07 09:35:26;;;;;;;8.80;5.32;;;;;;;;;;5032390;28;20432;-81
2022/01/07 09:37:52;;;;;;;11.20;5.20;;;;;;;;;;5029323;28;20087;-84
2022/01/07 09:40:18;;;;;;;10.88;5.82;;;;;;;;;;5032850;28;20025;-83
2022/01/07 09:42:58;;;;;;;9.35;5.97;;;;;;;;;;5011298;28;20108;-81
2022/01/07 09:45:26;;;;;;;9.57;5.35;;;;;;;;;;5033247;28;20021;-82
2022/01/07 09:47:55;;;;;;;13.02;6.22;;;;;;;;;;5032148;28;20037;-81
2022/01/07 09:50:21;;;;;;;18.37;10.53;;;;;;;;;;5032953;28;20525;-82
2022/01/07 09:52:47;;;;;;;20.88;10.93;;;;;;;;;;5023336;28;20053;-81
2022/01/07 09:55:13;;;;;;;16.45;8.70;;;;;;;;;;5009666;28;20420;-83
2022/01/07 09:57:39;;;;;;;16.10;8.73;;;;;;;;;;5033557;28;20129;-82
2022/01/07 10:00:07;;;;;;;24.75;15.20;;;;;;;;;;5035979;28;20501;-84
2022/01/07 10:02:32;;;;;;;15.77;8.80;;;;;;;;;;5033578;28;20129;-84
2022/01/07 10:05:14;;;;;;;9.93;6.55;;;;;;;;;;5015616;28;20101;-83
2022/01/07 10:07:39;;;;;;;17.98;12.38;;;;;;;;;;5033736;28;20025;-82
2022/01/07 10:10:05;;;;;;;10.23;5.50;;;;;;;;;;5033567;28;20025;-80
2022/01/07 10:12:50;;;;;;;9.23;5.07;;;;;;;;;;5018679;28;20084;-81
2022/01/07 10:15:24;;;;;;;6.03;3.67;;;;;;;;;;5033717;28;20040;-84
2022/01/07 10:18:01;;;;;;;7.53;4.25;;;;;;;;;;5032372;28;20049;-81
2022/01/07 10:20:37;;;;;;;7.95;3.28;;;;;;;;;;5031565;28;20041;-83
2022/01/07 10:23:08;;;;;;;7.15;4.00;;;;;;;;;;5032433;28;20124;-83
2022/01/07 10:25:38;;;;;;;5.70;2.72;;;;;;;;;;5033398;28;20421;-83
2022/01/07 10:28:05;;;;;;;;;;;;;;;;;;5033911;28;20053;-83
2022/01/07 10:30:39;;;;;;;3.75;2.58;;;;;;;;;;5033325;28;20349;-82
2022/01/07 10:33:20;;;;;;;4.18;2.97;;;;;;;;;;5030724;28;20029;-82
2022/01/07 10:36:14;;;;;;;6.20;2.75;;;;;;;;;;5029761;28;20029;-85
2022/01/07 10:38:53;;;;;;;10.68;6.07;;;;;;;;;;5033332;28;20029;-83
2022/01/07 10:41:20;;;;;;;12.55;6.50;;;;;;;;;;5032413;28;20025;-83
2022/01/07 10:43:48;;;;;;;4.97;3.05;;;;;;;;;;5032062;28;20038;-82
2022/01/07 10:46:24;;;;;;;6.25;3.65;;;;;;;;;;5013708;28;20064;-82
2022/01/07 10:48:54;;;;;;;4.85;2.95;;;;;;;;;;5029869;28;20040;-81
2022/01/07 10:51:23;;;;;;;7.38;3.25;;;;;;;;;;5031917;28;20037;-81
2022/01/07 10:53:56;;;;;;;6.82;3.90;;;;;;;;;;5018908;28;20033;-82
2022/01/07 10:56:24;;;;;;;12.82;7.93;;;;;;;;;;5030927;28;20041;-82
2022/01/07 10:58:55;;;;;;;10.43;4.70;;;;;;;;;;5011607;28;20025;-81
2022/01/07 11:01:21;;;;;;;9.63;4.40;;;;;;;;;;5026769;28;20108;-80
2022/01/07 11:03:53;;;;;;;8.48;4.25;;;;;;;;;;5013454;28;20176;-80
2022/01/07 11:06:19;;;;;;;4.65;2.95;;;;;;;;;;5004555;28;20026;-82
2022/01/07 11:08:48;;;;;;;8.45;4.30;;;;;;;;;;5013172;28;20151;-82
2022/01/07 11:11:14;;;;;;;8.15;4.60;;;;;;;;;;5013979;28;20030;-83
2022/01/07 11:13:41;;;;;;;12.48;5.93;;;;;;;;;;5031563;28;20029;-80
2022/01/07 11:16:07;;;;;;;12.70;5.55;;;;;;;;;;5031859;28;20424;-82
2022/01/07 11:18:36;;;;;;;11.68;6.53;;;;;;;;;;5030528;28;20132;-80
2022/01/07 11:21:03;;;;;;;8.63;4.95;;;;;;;;;;5013937;28;20112;-81
2022/01/07 11:23:30;;;;;;;7.80;4.60;;;;;;;;;;5013559;28;20525;-81
2022/01/07 11:26:04;;;;;;;10.80;6.00;;;;;;;;;;5031448;28;20025;-81
2022/01/07 11:28:30;;;;;;;12.75;5.75;;;;;;;;;;5031218;28;20029;-82
2022/01/07 11:31:13;;;;;;;10.45;5.68;;;;;;;;;;5030956;28;20385;-81
2022/01/07 11:33:41;;;;;;;11.57;6.25;;;;;;;;;;5028481;28;20025;-83
2022/01/07 11:36:11;;;;;;;12.25;6.05;;;;;;;;;;5030177;28;20075;-82
2022/01/07 11:38:40;;;;;;;;;;;;;;;;;;5031067;28;20377;-81
2022/01/07 11:41:14;;;;;;;16.00;7.65;;;;;;;;;;5031159;28;19943;-84
2022/01/07 11:43:45;;;;;;;12.43;7.10;;;;;;;;;;5030432;28;20083;-83
2022/01/07 11:46:24;;;;;;;13.65;6.03;;;;;;;;;;5030776;28;20412;-81
2022/01/07 11:48:51;;;;;;;9.00;4.88;;;;;;;;;;5030112;28;20030;-81
2022/01/07 11:51:17;;;;;;;14.65;6.20;;;;;;;;;;5030755;28;20473;-83
2022/01/07 11:53:48;;;;;;;18.73;9.65;;;;;;;;;;5028814;28;20029;-82
2022/01/07 11:56:16;;;;;;;22.80;12.45;;;;;;;;;;5030226;28;20021;-81
2022/01/07 11:58:51;;;;;;;20.67;11.57;;;;;;;;;;5030113;28;20049;-82
2022/01/07 12:01:27;;;;;;;23.00;9.68;;;;;;;;;;5030704;28;20026;-82
2022/01/07 12:03:54;;;;;;;16.20;9.20;;;;;;;;;;5030476;28;20025;-81
2022/01/07 12:06:31;;;;;;;18.75;8.43;;;;;;;;;;5031248;28;20036;-82
2022/01/07 12:08:56;;;;;;;16.02;7.90;;;;;;;;;;5030942;28;20450;-82
2022/01/07 12:11:24;;;;;;;17.85;9.73;;;;;;;;;;5013308;28;20037;-82
2022/01/07 12:13:50;;;;;;;15.90;6.90;;;;;;;;;;5029331;28;20342;-81
2022/01/07 12:16:20;;;;;;;12.32;7.03;;;;;;;;;;5031063;28;20040;-81
2022/01/07 12:18:45;;;;;;;13.55;6.28;;;;;;;;;;5030500;28;20552;-81
2022/01/07 12:21:11;;;;;;;14.05;7.32;;;;;;;;;;5030468;28;20104;-79
2022/01/07 12:23:39;;;;;;;15.30;7.70;;;;;;;;;;5030700;28;20068;-81
2022/01/07 12:26:06;;;;;;;14.70;8.45;;;;;;;;;;5026640;28;20029;-81
2022/01/07 12:28:48;;;;;;;13.32;7.93;;;;;;;;;;5030525;28;20052;-81
2022/01/07 12:31:14;;;;;;;14.73;7.63;;;;;;;;;;5030924;28;20048;-80
2022/01/07 12:33:54;;;;;;;13.45;8.23;;;;;;;;;;5030387;28;20033;-81
2022/01/07 12:36:36;;;;;;;19.50;9.18;;;;;;;;;;5030604;28;20025;-79
2022/01/07 12:39:07;;;;;;;14.02;7.20;;;;;;;;;;5029596;28;20481;-80
2022/01/07 12:41:33;;;;;;;13.95;7.40;;;;;;;;;;5029324;28;20025;-84
2022/01/07 12:44:11;;;;;;;11.25;7.20;;;;;;;;;;5028810;28;20036;-82
2022/01/07 12:46:38;;;;;;;13.43;7.50;;;;;;;;;;5028358;28;20366;-82
2022/01/07 12:49:04;;;;;;;13.95;8.35;;;;;;;;;;5032694;28;20033;-81
2022/01/07 12:51:30;;;;;;;14.15;7.88;;;;;;;;;;5033086;28;20033;-81
2022/01/07 12:54:03;;;;;;;14.23;7.82;;;;;;;;;;5026244;28;20030;-83
2022/01/07 12:56:31;;;;;;;13.55;7.10;;;;;;;;;;5034192;28;20489;-84
2022/01/07 12:59:08;;;;;;;14.93;8.60;;;;;;;;;;5027874;28;20045;-81
2022/01/07 13:01:33;;;;;;;19.02;8.02;;;;;;;;;;5031280;28;20072;-83
2022/01/07 13:04:10;;;;;;;16.08;8.52;;;;;;;;;;5034478;28;20025;-84
2022/01/07 13:06:56;;;;;;;16.30;8.70;;;;;;;;;;5032194;28;20053;-85
2022/01/07 13:09:23;;;;;;;16.77;8.07;;;;;;;;;;5033659;28;20037;-83
2022/01/07 13:11:51;;;;;;;16.40;8.27;;;;;;;;;;5016618;28;20033;-83
2022/01/07 13:14:20;;;;;;;17.60;8.77;;;;;;;;;;5015267;28;20033;-83
2022/01/07 13:16:49;;;;;;;14.48;8.23;;;;;;;;;;5033839;28;20481;-83
2022/01/07 13:19:15;;;;;;;21.08;9.38;;;;;;;;;;5015537;28;20021;-85
2022/01/07 13:21:42;;;;;;;15.07;9.88;;;;;;;;;;5012283;28;20098;-82
2022/01/07 13:24:12;;;;;;;19.40;9.98;;;;;;;;;;5031840;28;20025;-84
2022/01/07 13:26:38;;;;;;;20.20;10.75;;;;;;;;;;5034476;28;20060;-81
2022/01/07 13:29:24;;;;;;;20.77;12.00;;;;;;;;;;5015117;28;20493;-83
2022/01/07 13:31:57;;;;;;;22.05;12.13;;;;;;;;;;5028594;28;20029;-82
2022/01/07 13:34:28;;;;;;;18.10;9.75;;;;;;;;;;5031304;28;20159;-84
2022/01/07 13:37:02;;;;;;;19.77;9.65;;;;;;;;;;5034122;28;20427;-82
2022/01/07 13:39:40;;;;;;;22.23;11.52;;;;;;;;;;5015679;28;20029;-81
2022/01/07 13:42:07;;;;;;;18.40;9.63;;;;;;;;;;5032937;28;20032;-81
2022/01/07 13:44:55;;;;;;;19.88;10.00;;;;;;;;;;5031997;28;20025;-82
2022/01/07 13:47:40;;;;;;;13.57;8.23;;;;;;;;;;5033332;28;20037;-82
2022/01/07 13:50:19;;;;;;;13.70;7.90;;;;;;;;;;5033399;28;20143;-80
2022/01/07 13:52:45;;;;;;;13.70;7.78;;;;;;;;;;5032774;28;20025;-80
2022/01/07 13:55:31;;;;;;;14.52;7.95;;;;;;;;;;5033968;28;20040;-82
2022/01/07 13:58:16;;;;;;;14.73;7.90;;;;;;;;;;5031472;28;20025;-81
2022/01/07 14:00:44;;;;;;;22.40;8.82;;;;;;;;;;5033914;28;20439;-81
2022/01/07 14:03:11;;;;;;;17.00;8.63;;;;;;;;;;5034264;28;20086;-82
2022/01/07 14:05:36;;;;;;;16.38;9.02;;;;;;;;;;5015081;28;20033;-80
2022/01/07 14:08:09;;;;;;;17.38;9.60;;;;;;;;;;5031004;28;20508;-83
2022/01/07 14:10:39;;;;;;;25.27;10.95;;;;;;;;;;5014136;28;20025;-80
2022/01/07 14:13:21;;;;;;;20.60;10.20;;;;;;;;;;5012538;28;20484;-81
2022/01/07 14:15:49;;;;;;;20.27;10.75;;;;;;;;;;5030138;28;20091;-81
2022/01/07 14:18:22;;;;;;;22.75;12.48;;;;;;;;;;5030531;28;20029;-80
2022/01/07 14:20:51;;;;;;;32.70;12.32;;;;;;;;;;5029958;28;20478;-83
2022/01/07 14:23:23;;;;;;;24.65;12.50;;;;;;;;;;5012794;28;20068;-81
2022/01/07 14:25:59;;;;;;;33.33;13.35;;;;;;;;;;5032759;28;20059;-80
2022/01/07 14:28:25;;;;;;;21.40;12.15;;;;;;;;;;5015433;28;20022;-81
2022/01/07 14:30:50;;;;;;;23.55;11.65;;;;;;;;;;5033663;28;20052;-80
2022/01/07 14:33:16;;;;;;;27.05;12.63;;;;;;;;;;5033371;28;20033;-79
2022/01/07 14:35:42;;;;;;;25.92;11.50;;;;;;;;;;5033351;28;20090;-83
2022/01/07 14:38:08;;;;;;;16.40;10.30;;;;;;;;;;5033744;28;20028;-81
2022/01/07 14:40:34;;;;;;;19.45;10.35;;;;;;;;;;5015295;28;20025;-82
2022/01/07 14:42:59;;;;;;;17.55;10.70;;;;;;;;;;5033313;28;20060;-81
2022/01/07 14:45:25;;;;;;;20.88;9.82;;;;;;;;;;5033632;28;20029;-79
2022/01/07 14:47:51;;;;;;;20.50;11.65;;;;;;;;;;5033092;28;20099;-81
2022/01/07 14:50:18;;;;;;;24.70;12.05;;;;;;;;;;5033373;28;20045;-81